createdAt,value
2023-05-07T00:01:44.961Z,14.90
2023-05-07T00:04:11.924Z,14.90
2023-05-07T00:06:38.682Z,14.90
2023-05-07T00:09:05.412Z,14.90
2023-05-07T00:11:32.471Z,14.80
2023-05-07T00:13:59.087Z,14.90
2023-05-07T00:16:25.970Z,14.80
2023-05-07T00:18:53.316Z,14.80
2023-05-07T00:21:19.892Z,14.90
2023-05-07T00:23:46.551Z,14.80
2023-05-07T00:26:13.134Z,14.80
2023-05-07T00:28:40.268Z,14.80
2023-05-07T00:31:06.830Z,14.80
2023-05-07T00:33:33.399Z,14.70
2023-05-07T00:36:01.909Z,14.70
2023-05-07T00:38:28.551Z,14.70
2023-05-07T00:40:55.196Z,14.70
2023-05-07T00:43:21.762Z,14.70
2023-05-07T00:45:48.494Z,14.70
2023-05-07T00:48:15.485Z,14.70
2023-05-07T00:50:42.467Z,14.70
2023-05-07T00:53:09.453Z,14.70
2023-05-07T00:55:37.264Z,14.70
2023-05-07T00:58:04.018Z,14.70
2023-05-07T01:00:30.773Z,14.70
2023-05-07T01:02:57.471Z,14.70
2023-05-07T01:05:26.746Z,14.70
2023-05-07T01:07:56.071Z,14.70
2023-05-07T01:10:24.451Z,14.60
2023-05-07T01:12:51.879Z,14.70
2023-05-07T01:15:18.754Z,14.60
2023-05-07T01:17:45.650Z,14.60
2023-05-07T01:20:13.105Z,14.50
2023-05-07T01:22:40.794Z,14.50
2023-05-07T01:25:09.109Z,14.40
2023-05-07T01:27:37.501Z,14.40
2023-05-07T01:30:07.453Z,14.40
2023-05-07T01:32:52.140Z,14.30
2023-05-07T01:35:21.845Z,14.40
2023-05-07T01:37:49.525Z,14.30
2023-05-07T01:40:16.369Z,14.30
2023-05-07T01:42:44.341Z,14.30
2023-05-07T01:45:11.439Z,14.30
2023-05-07T01:47:38.769Z,14.10
2023-05-07T01:50:09.031Z,14.10
2023-05-07T01:52:37.381Z,13.90
2023-05-07T01:55:04.523Z,13.90
2023-05-07T01:57:31.194Z,13.90
2023-05-07T01:59:57.802Z,13.90
2023-05-07T02:02:24.577Z,13.90
2023-05-07T02:04:51.324Z,13.90
2023-05-07T02:07:18.197Z,13.80
2023-05-07T02:09:44.764Z,13.70
2023-05-07T02:12:11.416Z,13.70
2023-05-07T02:14:38.007Z,13.70
2023-05-07T02:17:04.586Z,13.70
2023-05-07T02:19:31.258Z,13.70
2023-05-07T02:21:57.879Z,13.70
2023-05-07T02:24:24.535Z,13.70
2023-05-07T02:26:51.305Z,13.80
2023-05-07T02:29:17.884Z,13.80
2023-05-07T02:31:44.524Z,13.70
2023-05-07T02:34:11.637Z,13.70
2023-05-07T02:36:38.226Z,13.60
2023-05-07T02:39:04.891Z,13.60
2023-05-07T02:41:31.664Z,13.70
2023-05-07T02:43:58.226Z,13.70
2023-05-07T02:46:24.881Z,13.70
2023-05-07T02:48:51.509Z,13.60
2023-05-07T02:51:23.991Z,13.50
2023-05-07T02:53:52.059Z,13.50
2023-05-07T02:56:18.623Z,13.50
2023-05-07T02:58:45.244Z,13.40
2023-05-07T03:01:12.339Z,13.40
2023-05-07T03:03:39.056Z,13.40
2023-05-07T03:06:06.018Z,13.30
2023-05-07T03:08:32.656Z,13.20
2023-05-07T03:10:59.327Z,13.30
2023-05-07T03:13:26.153Z,13.30
2023-05-07T03:15:52.890Z,13.20
2023-05-07T03:18:19.739Z,13.20
2023-05-07T03:20:49.349Z,13.20
2023-05-07T03:23:15.974Z,13.10
2023-05-07T03:25:42.549Z,13.10
2023-05-07T03:28:09.150Z,13.10
2023-05-07T03:30:35.797Z,13.10
2023-05-07T03:33:02.429Z,13.00
2023-05-07T03:35:29.053Z,12.90
2023-05-07T03:37:55.670Z,12.90
2023-05-07T03:40:22.299Z,12.90
2023-05-07T03:42:48.925Z,12.90
2023-05-07T03:45:15.555Z,12.90
2023-05-07T03:47:42.336Z,12.90
2023-05-07T03:50:09.718Z,12.90
2023-05-07T03:52:36.727Z,12.90
2023-05-07T03:55:03.481Z,12.90
2023-05-07T03:57:30.438Z,12.90
2023-05-07T03:59:57.039Z,12.90
2023-05-07T04:02:23.696Z,12.80
2023-05-07T04:04:51.020Z,12.80
2023-05-07T04:07:17.748Z,12.80
2023-05-07T04:09:44.350Z,12.80
2023-05-07T04:12:10.966Z,12.80
2023-05-07T04:14:37.543Z,12.90
2023-05-07T04:17:04.147Z,12.90
2023-05-07T04:19:31.100Z,13.00
2023-05-07T04:21:57.698Z,12.90
2023-05-07T04:24:24.424Z,12.90
2023-05-07T04:26:52.116Z,12.90
2023-05-07T04:29:18.733Z,13.00
2023-05-07T04:31:45.846Z,12.90
2023-05-07T04:34:12.587Z,12.90
2023-05-07T04:36:39.786Z,12.90
2023-05-07T04:39:06.645Z,12.80
2023-05-07T04:41:34.036Z,12.70
2023-05-07T04:44:00.907Z,12.80
2023-05-07T04:46:27.556Z,12.80
2023-05-07T04:48:54.177Z,12.70
2023-05-07T04:51:20.791Z,12.70
2023-05-07T04:53:47.626Z,12.70
2023-05-07T04:56:14.220Z,12.80
2023-05-07T04:58:40.858Z,12.80
2023-05-07T05:01:07.480Z,12.80
2023-05-07T05:03:34.249Z,12.80
2023-05-07T05:06:00.900Z,12.80
2023-05-07T05:08:27.485Z,12.90
2023-05-07T05:10:54.133Z,12.90
2023-05-07T05:13:20.984Z,12.90
2023-05-07T05:15:47.679Z,13.00
2023-05-07T05:18:14.253Z,13.00
2023-05-07T05:20:41.149Z,13.10
2023-05-07T05:23:08.943Z,13.10
2023-05-07T05:25:35.639Z,13.20
2023-05-07T05:28:02.335Z,13.20
2023-05-07T05:30:28.959Z,13.20
2023-05-07T05:32:55.593Z,13.30
2023-05-07T05:35:22.231Z,13.30
2023-05-07T05:37:49.122Z,13.30
2023-05-07T05:40:15.733Z,13.40
2023-05-07T05:42:42.404Z,13.30
2023-05-07T05:45:09.723Z,13.40
2023-05-07T05:47:36.370Z,13.40
2023-05-07T05:50:03.004Z,13.50
2023-05-07T05:52:29.883Z,13.50
2023-05-07T05:54:56.494Z,13.50
2023-05-07T05:57:23.183Z,13.60
2023-05-07T05:59:49.898Z,13.70
2023-05-07T06:02:16.547Z,13.90
2023-05-07T06:04:43.724Z,14.00
2023-05-07T06:07:10.649Z,14.00
2023-05-07T06:09:37.313Z,14.10
2023-05-07T06:12:04.173Z,14.10
2023-05-07T06:14:30.986Z,14.10
2023-05-07T06:16:58.210Z,14.20
2023-05-07T06:19:25.031Z,14.20
2023-05-07T06:21:51.707Z,14.20
2023-05-07T06:24:18.348Z,14.30
2023-05-07T06:26:45.206Z,14.30
2023-05-07T06:29:11.920Z,14.40
2023-05-07T06:31:38.614Z,14.40
2023-05-07T06:34:05.852Z,14.50
2023-05-07T06:36:32.552Z,14.70
2023-05-07T06:38:59.163Z,14.70
2023-05-07T06:41:26.765Z,14.90
2023-05-07T06:43:53.451Z,15.00
2023-05-07T06:46:20.217Z,15.10
2023-05-07T06:48:46.883Z,15.10
2023-05-07T06:51:13.652Z,15.10
2023-05-07T06:53:40.384Z,15.20
2023-05-07T06:56:07.095Z,15.20
2023-05-07T06:58:34.173Z,15.20
2023-05-07T07:01:00.941Z,15.30
2023-05-07T07:03:27.796Z,15.40
2023-05-07T07:05:55.679Z,15.40
2023-05-07T07:08:23.408Z,15.60
2023-05-07T07:10:50.445Z,15.60
2023-05-07T07:13:17.337Z,15.70
2023-05-07T07:15:44.734Z,15.70
2023-05-07T07:18:11.664Z,15.80
2023-05-07T07:20:38.454Z,15.90
2023-05-07T07:23:05.221Z,16.10
2023-05-07T07:25:32.308Z,16.20
2023-05-07T07:27:58.966Z,16.30
2023-05-07T07:30:26.170Z,16.40
2023-05-07T07:32:53.620Z,16.40
2023-05-07T07:35:20.414Z,16.50
2023-05-07T07:37:48.006Z,16.60
2023-05-07T07:40:15.451Z,16.70
2023-05-07T07:42:42.066Z,16.80
2023-05-07T07:45:09.238Z,16.90
2023-05-07T07:47:35.965Z,17.00
2023-05-07T07:50:02.719Z,17.10
2023-05-07T07:52:29.320Z,17.10
2023-05-07T07:54:55.934Z,17.20
2023-05-07T07:57:22.510Z,17.20
2023-05-07T07:59:49.059Z,17.30
2023-05-07T08:02:15.755Z,17.40
2023-05-07T08:04:46.605Z,17.40
2023-05-07T08:07:13.537Z,17.40
2023-05-07T08:09:40.519Z,17.50
2023-05-07T08:12:07.947Z,17.50
2023-05-07T08:14:35.411Z,17.50
2023-05-07T08:17:02.072Z,17.50
2023-05-07T08:19:28.686Z,17.50
2023-05-07T08:21:56.055Z,17.60
2023-05-07T08:24:22.686Z,17.60
2023-05-07T08:26:50.469Z,17.70
2023-05-07T08:29:17.178Z,17.70
2023-05-07T08:31:43.942Z,17.70
2023-05-07T08:34:10.667Z,17.70
2023-05-07T08:36:37.339Z,17.80
2023-05-07T08:39:04.053Z,17.80
2023-05-07T08:41:31.610Z,17.80
2023-05-07T08:44:03.470Z,17.90
2023-05-07T08:46:33.217Z,17.90
2023-05-07T08:49:00.051Z,18.00
2023-05-07T08:51:26.742Z,18.00
2023-05-07T08:53:53.410Z,18.10
2023-05-07T08:56:22.471Z,18.10
2023-05-07T08:58:49.481Z,18.20
2023-05-07T09:01:17.633Z,18.20
2023-05-07T09:03:47.054Z,18.30
2023-05-07T09:06:13.714Z,18.30
2023-05-07T09:08:40.318Z,18.40
2023-05-07T09:11:07.364Z,18.50
2023-05-07T09:13:34.069Z,18.60
2023-05-07T09:16:12.036Z,18.70
2023-05-07T09:18:45.818Z,18.80
2023-05-07T09:21:16.638Z,18.70
2023-05-07T09:23:43.383Z,18.80
2023-05-07T09:26:13.007Z,18.80
2023-05-07T09:28:42.995Z,18.90
2023-05-07T09:31:10.677Z,18.90
2023-05-07T09:33:38.001Z,19.00
2023-05-07T09:36:08.726Z,19.00
2023-05-07T09:38:37.484Z,19.10
2023-05-07T09:41:06.979Z,19.10
2023-05-07T09:43:35.793Z,19.20
2023-05-07T09:46:12.870Z,19.30
2023-05-07T09:48:41.153Z,19.30
2023-05-07T09:51:19.943Z,19.30
2023-05-07T09:53:47.216Z,19.40
2023-05-07T09:56:16.536Z,19.40
2023-05-07T09:58:44.264Z,19.40
2023-05-07T10:01:13.070Z,19.50
2023-05-07T10:03:43.426Z,19.60
2023-05-07T10:06:11.582Z,19.80
2023-05-07T10:08:38.631Z,19.80
2023-05-07T10:11:06.905Z,19.90
2023-05-07T10:13:37.456Z,20.00
2023-05-07T10:16:08.954Z,19.90
2023-05-07T10:18:35.981Z,20.10
2023-05-07T10:21:09.537Z,20.10
2023-05-07T10:23:36.648Z,20.20
2023-05-07T10:26:06.013Z,20.20
2023-05-07T10:28:39.602Z,20.30
2023-05-07T10:31:16.116Z,20.40
2023-05-07T10:33:45.356Z,20.50
2023-05-07T10:36:12.503Z,20.60
2023-05-07T10:38:40.809Z,20.70
2023-05-07T10:41:07.467Z,20.70
2023-05-07T10:43:45.207Z,20.80
2023-05-07T10:46:19.371Z,20.90
2023-05-07T10:49:04.641Z,20.80
2023-05-07T10:51:33.553Z,20.80
2023-05-07T10:54:12.340Z,20.90
2023-05-07T10:56:48.473Z,20.90
2023-05-07T10:59:21.248Z,20.90
2023-05-07T11:01:59.040Z,21.10
2023-05-07T11:04:28.230Z,21.20
2023-05-07T11:07:10.365Z,21.20
2023-05-07T11:09:56.849Z,21.20
2023-05-07T11:12:39.122Z,21.30
2023-05-07T11:15:07.879Z,21.20
2023-05-07T11:17:38.169Z,21.30
2023-05-07T11:20:05.563Z,21.40
2023-05-07T11:22:32.560Z,21.40
2023-05-07T11:25:03.026Z,21.30
2023-05-07T11:27:30.381Z,21.40
2023-05-07T11:29:57.198Z,21.50
2023-05-07T11:32:24.902Z,21.50
2023-05-07T11:34:53.411Z,21.60
2023-05-07T11:37:21.257Z,21.50
2023-05-07T11:39:48.002Z,21.50
2023-05-07T11:42:38.529Z,21.60
2023-05-07T11:45:07.074Z,21.70
2023-05-07T11:47:34.881Z,21.80
2023-05-07T11:50:08.812Z,21.80
2023-05-07T11:52:36.404Z,21.80
2023-05-07T11:55:05.338Z,21.90
2023-05-07T11:57:34.424Z,21.80
2023-05-07T12:00:06.223Z,21.80
2023-05-07T12:02:33.130Z,21.80
2023-05-07T12:05:01.741Z,21.80
2023-05-07T12:07:28.403Z,21.80
2023-05-07T12:09:55.196Z,21.80
2023-05-07T12:12:21.777Z,21.80
2023-05-07T12:14:49.061Z,22.00
2023-05-07T12:17:16.119Z,22.10
2023-05-07T12:19:45.492Z,22.30
2023-05-07T12:22:12.921Z,22.30
2023-05-07T12:24:47.342Z,22.20
2023-05-07T12:27:15.050Z,22.10
2023-05-07T12:29:48.518Z,22.20
2023-05-07T12:32:19.298Z,22.20
2023-05-07T12:34:47.049Z,22.10
2023-05-07T12:37:14.113Z,22.10
2023-05-07T12:39:51.077Z,22.10
2023-05-07T12:42:24.419Z,21.90
2023-05-07T12:44:51.775Z,21.80
2023-05-07T12:47:18.403Z,21.80
2023-05-07T12:49:46.821Z,21.60
2023-05-07T12:52:14.324Z,21.60
2023-05-07T12:54:40.994Z,21.60
2023-05-07T12:57:09.890Z,21.50
2023-05-07T12:59:39.164Z,21.40
2023-05-07T13:02:06.647Z,21.40
2023-05-07T13:04:34.201Z,21.30
2023-05-07T13:07:01.750Z,21.30
2023-05-07T13:09:30.015Z,21.20
2023-05-07T13:11:56.798Z,21.20
2023-05-07T13:14:23.383Z,21.20
2023-05-07T13:16:50.421Z,21.20
2023-05-07T13:19:17.081Z,21.10
2023-05-07T13:21:43.946Z,21.10
2023-05-07T13:24:10.610Z,21.00
2023-05-07T13:26:37.232Z,21.00
2023-05-07T13:29:03.926Z,20.90
2023-05-07T13:31:31.005Z,20.90
2023-05-07T13:33:57.755Z,20.80
2023-05-07T13:36:24.386Z,20.70
2023-05-07T13:38:52.752Z,20.70
2023-05-07T13:41:20.110Z,20.70
2023-05-07T13:43:46.727Z,20.70
2023-05-07T13:46:13.462Z,20.70
2023-05-07T13:48:40.249Z,20.60
2023-05-07T13:51:06.927Z,20.50
2023-05-07T13:53:33.643Z,20.40
2023-05-07T13:56:00.478Z,20.30
2023-05-07T13:58:27.180Z,20.30
2023-05-07T14:00:53.777Z,20.20
2023-05-07T14:03:20.770Z,20.10
2023-05-07T14:05:50.095Z,20.10
2023-05-07T14:08:19.516Z,20.00
2023-05-07T14:10:47.020Z,20.00
2023-05-07T14:13:13.732Z,19.80
2023-05-07T14:15:41.279Z,19.80
2023-05-07T14:18:08.009Z,19.80
2023-05-07T14:20:37.597Z,19.70
2023-05-07T14:23:04.354Z,19.50
2023-05-07T14:25:32.002Z,19.40
2023-05-07T14:27:58.645Z,19.20
2023-05-07T14:30:25.660Z,19.00
2023-05-07T14:32:52.275Z,18.80
2023-05-07T14:35:18.924Z,18.50
2023-05-07T14:37:45.550Z,18.40
2023-05-07T14:40:12.883Z,18.40
2023-05-07T14:42:39.755Z,18.40
2023-05-07T14:45:06.924Z,18.30
2023-05-07T14:47:33.756Z,18.20
2023-05-07T14:50:02.052Z,18.10
2023-05-07T14:52:28.805Z,18.20
2023-05-07T14:54:55.526Z,18.20
2023-05-07T14:57:22.561Z,18.20
2023-05-07T14:59:49.378Z,18.30
2023-05-07T15:02:16.532Z,18.30
2023-05-07T15:04:46.742Z,18.30
2023-05-07T15:07:18.354Z,18.30
2023-05-07T15:09:45.630Z,18.30
2023-05-07T15:12:12.604Z,18.30
2023-05-07T15:14:40.200Z,18.30
2023-05-07T15:17:06.935Z,18.20
2023-05-07T15:19:33.775Z,18.10
2023-05-07T15:22:04.338Z,18.10
2023-05-07T15:24:31.749Z,18.00
2023-05-07T15:27:03.597Z,17.80
2023-05-07T15:29:30.341Z,17.80
2023-05-07T15:31:57.716Z,17.70
2023-05-07T15:34:25.105Z,17.60
2023-05-07T15:36:51.750Z,17.50
2023-05-07T15:39:18.400Z,17.30
2023-05-07T15:41:44.979Z,17.30
2023-05-07T15:44:11.545Z,17.30
2023-05-07T15:46:38.284Z,17.30
2023-05-07T15:49:05.483Z,17.20
2023-05-07T15:51:34.915Z,17.30
2023-05-07T15:54:01.825Z,17.30
2023-05-07T15:56:28.429Z,17.30
2023-05-07T15:58:55.064Z,17.30
2023-05-07T16:01:22.361Z,17.30
2023-05-07T16:03:50.140Z,17.30
2023-05-07T16:06:17.064Z,17.30
2023-05-07T16:08:44.780Z,17.30
2023-05-07T16:11:11.607Z,17.30
2023-05-07T16:13:38.202Z,17.20
2023-05-07T16:16:05.340Z,17.20
2023-05-07T16:18:33.375Z,17.20
2023-05-07T16:21:00.896Z,17.10
2023-05-07T16:23:27.542Z,17.10
2023-05-07T16:25:54.228Z,17.20
2023-05-07T16:28:21.301Z,17.20
2023-05-07T16:30:48.515Z,17.20
2023-05-07T16:33:15.131Z,17.00
2023-05-07T16:35:42.023Z,17.10
2023-05-07T16:38:11.152Z,17.00
2023-05-07T16:40:39.513Z,16.90
2023-05-07T16:43:06.414Z,16.80
2023-05-07T16:45:33.090Z,16.70
2023-05-07T16:47:59.811Z,16.60
2023-05-07T16:50:26.442Z,16.50
2023-05-07T16:52:53.006Z,16.50
2023-05-07T16:55:19.768Z,16.40
2023-05-07T16:57:46.376Z,16.30
2023-05-07T17:00:13.578Z,16.20
2023-05-07T17:02:40.285Z,16.20
2023-05-07T17:05:07.304Z,16.10
2023-05-07T17:07:34.042Z,15.90
2023-05-07T17:10:01.473Z,15.80
2023-05-07T17:12:29.123Z,15.80
2023-05-07T17:14:55.774Z,15.80
2023-05-07T17:17:22.440Z,15.80
2023-05-07T17:19:49.095Z,15.70
2023-05-07T17:22:15.825Z,15.70
2023-05-07T17:24:42.397Z,15.70
2023-05-07T17:27:08.982Z,15.70
2023-05-07T17:29:35.629Z,15.70
2023-05-07T17:32:02.566Z,15.70
2023-05-07T17:34:30.117Z,15.70
2023-05-07T17:36:57.429Z,15.70
2023-05-07T17:39:24.238Z,15.80
2023-05-07T17:41:51.098Z,15.90
2023-05-07T17:44:18.672Z,15.90
2023-05-07T17:46:45.318Z,15.90
2023-05-07T17:49:12.022Z,15.90
2023-05-07T17:51:52.571Z,15.90
2023-05-07T17:54:21.524Z,15.90
2023-05-07T17:56:48.187Z,16.00
2023-05-07T17:59:14.819Z,16.10
2023-05-07T18:01:42.171Z,16.20
2023-05-07T18:04:09.022Z,16.20
2023-05-07T18:06:36.020Z,16.20
2023-05-07T18:09:02.909Z,16.30
2023-05-07T18:11:29.679Z,16.30
2023-05-07T18:13:56.286Z,16.20
2023-05-07T18:16:22.960Z,16.30
2023-05-07T18:18:49.595Z,16.30
2023-05-07T18:21:18.757Z,16.30
2023-05-07T18:23:46.504Z,16.30
2023-05-07T18:26:13.319Z,16.30
2023-05-07T18:28:40.217Z,16.40
2023-05-07T18:31:07.246Z,16.30
2023-05-07T18:33:33.998Z,16.30
2023-05-07T18:36:00.744Z,16.30
2023-05-07T18:38:27.337Z,16.30
2023-05-07T18:40:54.208Z,16.20
2023-05-07T18:43:20.853Z,16.20
2023-05-07T18:45:48.751Z,16.30
2023-05-07T18:48:16.757Z,16.30
2023-05-07T18:50:44.054Z,16.30
2023-05-07T18:53:11.142Z,16.30
2023-05-07T18:55:37.836Z,16.40
2023-05-07T18:58:04.549Z,16.30
2023-05-07T19:00:31.255Z,16.30
2023-05-07T19:02:58.056Z,16.30
2023-05-07T19:05:24.760Z,16.30
2023-05-07T19:07:51.503Z,16.20
2023-05-07T19:10:18.667Z,16.20
2023-05-07T19:12:45.348Z,16.20
2023-05-07T19:15:12.042Z,16.10
2023-05-07T19:17:38.712Z,15.90
2023-05-07T19:22:37.571Z,15.80
2023-05-07T19:25:04.591Z,15.80
2023-05-07T19:27:31.224Z,15.80
2023-05-07T19:29:57.900Z,15.80
2023-05-07T19:32:24.646Z,15.70
2023-05-07T19:34:51.341Z,15.70
2023-05-07T19:37:18.467Z,15.70
2023-05-07T19:39:45.130Z,15.60
2023-05-07T19:42:13.226Z,15.60
2023-05-07T19:44:40.092Z,15.60
2023-05-07T19:47:06.957Z,15.60
2023-05-07T19:49:33.535Z,15.60
2023-05-07T19:52:00.310Z,15.60
2023-05-07T19:54:28.862Z,15.60
2023-05-07T19:56:56.580Z,15.60
2023-05-07T19:59:23.777Z,15.60
2023-05-07T20:01:50.413Z,15.60
2023-05-07T20:04:17.046Z,15.60
2023-05-07T20:06:43.661Z,15.60
2023-05-07T20:09:12.639Z,15.60
2023-05-07T20:11:39.862Z,15.70
2023-05-07T20:14:06.634Z,15.70
2023-05-07T20:16:33.884Z,15.80
2023-05-07T20:19:00.779Z,15.80
2023-05-07T20:21:27.565Z,15.80
2023-05-07T20:23:54.422Z,15.80
2023-05-07T20:26:21.270Z,15.70
2023-05-07T20:28:47.974Z,15.70
2023-05-07T20:31:16.023Z,15.70
2023-05-07T20:33:42.677Z,15.70
2023-05-07T20:36:09.389Z,15.80
2023-05-07T20:38:36.020Z,15.80
2023-05-07T20:41:11.710Z,15.80
2023-05-07T20:43:38.620Z,15.80
2023-05-07T20:46:07.389Z,15.80
2023-05-07T20:48:34.859Z,15.80
2023-05-07T20:51:01.985Z,15.70
2023-05-07T20:53:29.947Z,15.70
2023-05-07T20:55:57.298Z,15.60
2023-05-07T20:58:27.405Z,15.70
2023-05-07T21:00:54.684Z,15.70
2023-05-07T21:03:22.209Z,15.70
2023-05-07T21:05:52.992Z,15.70
2023-05-07T21:08:19.967Z,15.70
2023-05-07T21:10:47.157Z,15.60
2023-05-07T21:13:14.214Z,15.60
2023-05-07T21:15:44.177Z,15.60
2023-05-07T21:18:11.397Z,15.60
2023-05-07T21:20:38.215Z,15.50
2023-05-07T21:23:05.058Z,15.50
2023-05-07T21:25:31.755Z,15.60
2023-05-07T21:27:58.329Z,15.50
2023-05-07T21:30:25.030Z,15.50
2023-05-07T21:32:52.907Z,15.50
2023-05-07T21:35:19.649Z,15.40
2023-05-07T21:37:46.206Z,15.50
2023-05-07T21:40:13.422Z,15.40
2023-05-07T21:42:40.458Z,15.40
2023-05-07T21:45:07.362Z,15.40
2023-05-07T21:47:34.000Z,15.40
2023-05-07T21:50:01.363Z,15.40
2023-05-07T21:52:28.044Z,15.50
2023-05-07T21:54:54.858Z,15.40
2023-05-07T21:57:21.505Z,15.40
2023-05-07T21:59:48.258Z,15.40
2023-05-07T22:02:14.931Z,15.30
2023-05-07T22:04:41.562Z,15.40
2023-05-07T22:07:08.226Z,15.30
2023-05-07T22:09:34.827Z,15.30
2023-05-07T22:12:01.790Z,15.30
2023-05-07T22:14:28.410Z,15.30
2023-05-07T22:16:55.043Z,15.30
2023-05-07T22:19:21.627Z,15.40
2023-05-07T22:21:48.219Z,15.50
2023-05-07T22:24:15.154Z,15.40
2023-05-07T22:26:41.819Z,15.50
2023-05-07T22:29:08.387Z,15.40
2023-05-07T22:31:35.001Z,15.40
2023-05-07T22:34:02.162Z,15.40
2023-05-07T22:36:28.805Z,15.30
2023-05-07T22:38:55.470Z,15.40
2023-05-07T22:41:22.405Z,15.40
2023-05-07T22:43:49.105Z,15.40
2023-05-07T22:46:15.777Z,15.40
2023-05-07T22:48:42.434Z,15.50
2023-05-07T22:51:15.294Z,15.50
2023-05-07T22:53:41.968Z,15.40
2023-05-07T22:56:09.396Z,15.40
2023-05-07T22:58:36.099Z,15.30
2023-05-07T23:01:02.709Z,15.30
2023-05-07T23:03:29.554Z,15.30
2023-05-07T23:05:56.247Z,15.20
2023-05-07T23:08:23.237Z,15.20
2023-05-07T23:10:49.911Z,15.20
2023-05-07T23:13:17.265Z,15.10
2023-05-07T23:15:44.217Z,15.10
2023-05-07T23:18:11.002Z,15.00
2023-05-07T23:20:39.597Z,15.00
2023-05-07T23:23:06.288Z,15.00
2023-05-07T23:25:33.046Z,14.90
2023-05-07T23:27:59.697Z,14.90
2023-05-07T23:30:26.328Z,14.90
2023-05-07T23:32:52.947Z,14.90
2023-05-07T23:35:19.944Z,14.80
2023-05-07T23:37:46.597Z,14.90
2023-05-07T23:40:13.415Z,14.90
2023-05-07T23:42:40.483Z,14.80
2023-05-07T23:45:07.399Z,14.90
2023-05-07T23:47:34.141Z,14.80
2023-05-07T23:50:00.742Z,14.80
2023-05-07T23:52:27.397Z,14.80
2023-05-07T23:54:53.956Z,14.80
2023-05-07T23:57:20.522Z,14.70
2023-05-07T23:59:47.144Z,14.70
